createdAt,value
2019-06-01T00:00:24.222Z,13.46
2019-06-01T00:03:28.849Z,13.59
2019-06-01T00:06:33.333Z,13.63
2019-06-01T00:09:45.211Z,13.68
2019-06-01T00:12:49.665Z,13.74
2019-06-01T00:16:00.056Z,13.77
2019-06-01T00:19:12.266Z,13.77
2019-06-01T00:22:19.981Z,13.80
2019-06-01T00:25:24.647Z,13.81
2019-06-01T00:28:29.362Z,13.92
2019-06-01T00:31:34.036Z,13.91
2019-06-01T00:34:38.485Z,13.91
2019-06-01T00:37:50.254Z,13.92
2019-06-01T00:40:54.675Z,13.91
2019-06-01T00:43:59.345Z,13.94
2019-06-01T00:47:03.768Z,13.94
2019-06-01T00:50:08.341Z,14.00
2019-06-01T00:53:13.187Z,14.07
2019-06-01T00:56:20.412Z,13.99
2019-06-01T00:59:28.099Z,14.02
2019-06-01T01:02:32.383Z,14.09
2019-06-01T01:05:37.966Z,14.09
2019-06-01T01:08:42.297Z,14.12
2019-06-01T01:11:46.986Z,14.14
2019-06-01T01:14:51.374Z,14.17
2019-06-01T01:17:56.201Z,14.14
2019-06-01T01:21:01.026Z,14.16
2019-06-01T01:24:05.383Z,14.22
2019-06-01T01:27:09.987Z,14.17
2019-06-01T01:30:14.607Z,14.25
2019-06-01T01:33:18.917Z,14.28
2019-06-01T01:36:23.273Z,14.22
2019-06-01T01:39:27.925Z,14.21
2019-06-01T01:42:32.392Z,14.19
2019-06-01T01:45:36.790Z,14.21
2019-06-01T01:48:41.106Z,14.15
2019-06-01T01:51:45.579Z,14.22
2019-06-01T01:54:50.618Z,14.24
2019-06-01T01:57:55.475Z,14.26
2019-06-01T02:01:00.407Z,14.28
2019-06-01T02:04:06.127Z,14.33
2019-06-01T02:07:10.461Z,14.31
2019-06-01T02:10:15.014Z,14.36
2019-06-01T02:13:19.524Z,14.31
2019-06-01T02:16:23.817Z,14.29
2019-06-01T02:19:28.296Z,14.34
2019-06-01T02:22:32.581Z,14.31
2019-06-01T02:25:37.010Z,14.32
2019-06-01T02:28:41.426Z,14.40
2019-06-01T02:31:45.803Z,14.36
2019-06-01T02:34:50.108Z,14.33
2019-06-01T02:37:55.057Z,14.33
2019-06-01T02:41:01.206Z,14.42
2019-06-01T02:44:06.468Z,14.43
2019-06-01T02:47:11.933Z,14.45
2019-06-01T02:50:17.438Z,14.45
2019-06-01T02:53:21.712Z,14.48
2019-06-01T02:56:25.996Z,14.44
2019-06-01T02:59:30.321Z,14.41
2019-06-01T03:02:35.402Z,14.47
2019-06-01T03:05:42.762Z,14.50
2019-06-01T03:08:50.651Z,14.53
2019-06-01T03:11:59.375Z,14.57
2019-06-01T03:15:06.572Z,14.59
2019-06-01T03:18:13.640Z,14.54
2019-06-01T03:21:21.383Z,14.58
2019-06-01T03:24:26.288Z,14.61
2019-06-01T03:27:33.214Z,14.62
2019-06-01T03:30:45.400Z,14.63
2019-06-01T03:33:48.672Z,14.58
2019-06-01T03:36:56.112Z,14.67
2019-06-01T03:39:59.009Z,14.69
2019-06-01T03:43:04.277Z,14.67
2019-06-01T03:46:09.828Z,14.71
2019-06-01T03:49:14.189Z,14.74
2019-06-01T03:52:18.595Z,14.79
2019-06-01T03:55:22.881Z,14.74
2019-06-01T03:58:27.217Z,14.73
2019-06-01T04:01:31.589Z,14.76
2019-06-01T04:04:35.986Z,14.74
2019-06-01T04:07:41.393Z,14.77
2019-06-01T04:10:45.978Z,14.78
2019-06-01T04:13:50.293Z,14.78
2019-06-01T04:16:54.576Z,14.79
2019-06-01T04:19:58.865Z,14.80
2019-06-01T04:23:04.588Z,14.86
2019-06-01T04:26:10.171Z,14.86
2019-06-01T04:29:14.657Z,14.94
2019-06-01T04:32:18.966Z,14.92
2019-06-01T04:35:23.259Z,15.05
2019-06-01T04:38:27.537Z,14.99
2019-06-01T04:41:34.647Z,15.02
2019-06-01T04:44:39.035Z,15.04
2019-06-01T04:47:43.339Z,15.11
2019-06-01T04:50:47.659Z,15.08
2019-06-01T04:53:51.959Z,15.08
2019-06-01T04:56:56.323Z,15.12
2019-06-01T05:00:00.646Z,15.14
2019-06-01T05:03:07.252Z,15.13
2019-06-01T05:06:11.332Z,15.15
2019-06-01T05:09:15.928Z,15.20
2019-06-01T05:12:20.232Z,15.24
2019-06-01T05:15:24.592Z,15.23
2019-06-01T05:18:28.891Z,15.35
2019-06-01T05:21:33.186Z,15.47
2019-06-01T05:24:37.474Z,15.53
2019-06-01T05:27:41.788Z,15.65
2019-06-01T05:30:46.095Z,15.73
2019-06-01T05:33:50.443Z,15.75
2019-06-01T05:36:54.745Z,15.81
2019-06-01T05:39:59.141Z,15.94
2019-06-01T05:43:03.445Z,15.96
2019-06-01T05:46:07.720Z,16.08
2019-06-01T05:49:13.243Z,16.27
2019-06-01T05:52:19.319Z,16.03
2019-06-01T05:55:23.725Z,15.90
2019-06-01T05:58:29.384Z,15.86
2019-06-01T06:01:33.884Z,15.80
2019-06-01T06:04:39.853Z,15.88
2019-06-01T06:07:44.131Z,15.91
2019-06-01T06:10:48.430Z,16.06
2019-06-01T06:13:52.720Z,16.19
2019-06-01T06:16:57.075Z,16.38
2019-06-01T06:20:01.486Z,16.54
2019-06-01T06:23:05.787Z,16.64
2019-06-01T06:26:10.128Z,16.70
2019-06-01T06:29:14.772Z,16.54
2019-06-01T06:32:19.382Z,16.35
2019-06-01T06:35:23.967Z,16.21
2019-06-01T06:38:28.349Z,16.22
2019-06-01T06:41:32.647Z,16.18
2019-06-01T06:44:37.049Z,16.15
2019-06-01T06:47:41.336Z,16.24
2019-06-01T06:50:45.637Z,16.33
2019-06-01T06:53:50.061Z,16.37
2019-06-01T06:56:54.367Z,16.44
2019-06-01T06:59:58.636Z,16.47
2019-06-01T07:03:02.976Z,16.51
2019-06-01T07:06:07.423Z,16.61
2019-06-01T07:09:13.277Z,16.69
2019-06-01T07:12:19.262Z,16.74
2019-06-01T07:15:23.652Z,16.88
2019-06-01T07:18:27.982Z,16.94
2019-06-01T07:21:32.269Z,17.12
2019-06-01T07:24:38.364Z,17.31
2019-06-01T07:27:42.686Z,17.53
2019-06-01T07:30:50.351Z,17.56
2019-06-01T07:33:53.175Z,17.65
2019-06-01T07:36:57.565Z,17.66
2019-06-01T07:40:01.895Z,17.86
2019-06-01T07:43:06.199Z,18.00
2019-06-01T07:46:10.484Z,18.12
2019-06-01T07:49:14.860Z,18.23
2019-06-01T07:52:20.217Z,18.37
2019-06-01T07:55:25.507Z,18.30
2019-06-01T07:58:31.417Z,18.17
2019-06-01T08:01:35.775Z,18.06
2019-06-01T08:04:53.253Z,18.10
2019-06-01T08:07:50.072Z,18.32
2019-06-01T08:10:54.374Z,18.26
2019-06-01T08:13:58.665Z,18.44
2019-06-01T08:17:02.959Z,18.39
2019-06-01T08:20:09.102Z,18.29
2019-06-01T08:23:13.399Z,18.18
2019-06-01T08:26:20.141Z,18.15
2019-06-01T08:29:24.740Z,18.31
2019-06-01T08:32:29.227Z,18.33
2019-06-01T08:35:33.525Z,18.28
2019-06-01T08:38:37.809Z,18.14
2019-06-01T08:41:42.198Z,18.31
2019-06-01T08:44:46.632Z,18.36
2019-06-01T08:47:50.951Z,18.33
2019-06-01T08:50:55.330Z,18.36
2019-06-01T08:53:59.643Z,18.57
2019-06-01T08:57:03.958Z,18.47
2019-06-01T09:00:09.474Z,18.59
2019-06-01T09:03:13.726Z,18.62
2019-06-01T09:06:17.999Z,18.46
2019-06-01T09:09:22.309Z,18.37
2019-06-01T09:12:27.278Z,18.02
2019-06-01T09:15:35.594Z,17.99
2019-06-01T09:18:40.143Z,18.03
2019-06-01T09:21:44.576Z,18.22
2019-06-01T09:24:53.131Z,18.34
2019-06-01T09:27:54.962Z,18.20
2019-06-01T09:31:00.319Z,18.22
2019-06-01T09:34:04.592Z,18.20
2019-06-01T09:37:08.872Z,18.33
2019-06-01T09:40:13.545Z,18.27
2019-06-01T09:43:17.865Z,18.14
2019-06-01T09:46:22.653Z,17.92
2019-06-01T09:49:27.338Z,17.96
2019-06-01T09:52:31.782Z,18.00
2019-06-01T09:55:36.450Z,18.02
2019-06-01T09:58:42.014Z,18.04
2019-06-01T10:01:46.394Z,18.18
2019-06-01T10:04:50.704Z,18.11
2019-06-01T10:07:54.990Z,17.93
2019-06-01T10:10:59.573Z,18.11
2019-06-01T10:14:03.936Z,18.13
2019-06-01T10:17:08.233Z,18.27
2019-06-01T10:20:12.605Z,18.25
2019-06-01T10:23:16.878Z,18.32
2019-06-01T10:26:21.210Z,18.49
2019-06-01T10:29:25.572Z,18.88
2019-06-01T10:32:32.489Z,18.93
2019-06-01T10:35:37.069Z,18.74
2019-06-01T10:38:41.519Z,18.37
2019-06-01T10:41:45.924Z,18.05
2019-06-01T10:44:50.201Z,17.88
2019-06-01T10:47:54.571Z,18.11
2019-06-01T10:50:58.858Z,18.66
2019-06-01T10:54:03.459Z,19.17
2019-06-01T10:57:07.738Z,19.44
2019-06-01T11:00:12.940Z,19.46
2019-06-01T11:03:17.213Z,19.01
2019-06-01T11:06:36.215Z,18.55
2019-06-01T11:09:28.753Z,18.43
2019-06-01T11:12:33.037Z,18.15
2019-06-01T11:15:37.297Z,17.99
2019-06-01T11:18:41.844Z,18.07
2019-06-01T11:21:46.215Z,18.27
2019-06-01T11:24:50.496Z,18.54
2019-06-01T11:27:54.791Z,18.62
2019-06-01T11:30:59.104Z,18.54
2019-06-01T11:34:03.361Z,18.51
2019-06-01T11:37:07.749Z,18.61
2019-06-01T11:40:12.155Z,18.48
2019-06-01T11:43:16.548Z,18.55
2019-06-01T11:46:20.847Z,18.58
2019-06-01T11:49:25.130Z,18.73
2019-06-01T11:52:29.525Z,18.69
2019-06-01T11:55:35.054Z,18.62
2019-06-01T11:58:39.610Z,18.80
2019-06-01T12:01:44.187Z,18.78
2019-06-01T12:04:48.680Z,18.65
2019-06-01T12:07:52.964Z,18.52
2019-06-01T12:10:57.272Z,18.44
2019-06-01T12:14:01.551Z,18.29
2019-06-01T12:17:05.828Z,18.02
2019-06-01T12:20:10.736Z,17.89
2019-06-01T12:23:15.013Z,17.76
2019-06-01T12:26:19.418Z,17.62
2019-06-01T12:29:23.730Z,17.53
2019-06-01T12:32:29.789Z,17.61
2019-06-01T12:35:34.089Z,17.83
2019-06-01T12:38:52.354Z,17.91
2019-06-01T12:41:56.658Z,17.98
2019-06-01T12:45:00.978Z,17.99
2019-06-01T12:48:05.393Z,18.22
2019-06-01T12:51:09.684Z,18.33
2019-06-01T12:54:13.939Z,18.45
2019-06-01T12:57:18.325Z,18.67
2019-06-01T13:00:22.606Z,18.40
2019-06-01T13:03:26.900Z,18.58
2019-06-01T13:06:31.181Z,18.58
2019-06-01T13:09:35.480Z,18.67
2019-06-01T13:12:41.005Z,18.60
2019-06-01T13:15:45.383Z,18.40
2019-06-01T13:18:49.690Z,18.57
2019-06-01T13:21:53.973Z,18.82
2019-06-01T13:24:58.287Z,18.98
2019-06-01T13:28:02.559Z,18.83
2019-06-01T13:31:07.092Z,18.75
2019-06-01T13:34:12.368Z,18.50
2019-06-01T13:37:16.717Z,18.20
2019-06-01T13:40:21.026Z,18.03
2019-06-01T13:43:25.328Z,18.13
2019-06-01T13:46:31.452Z,18.36
2019-06-01T13:49:35.864Z,18.72
2019-06-01T13:52:40.163Z,18.85
2019-06-01T13:55:44.440Z,19.17
2019-06-01T13:58:48.802Z,19.36
2019-06-01T14:01:53.291Z,19.29
2019-06-01T14:04:57.531Z,18.97
2019-06-01T14:08:01.818Z,19.08
2019-06-01T14:11:06.109Z,18.85
2019-06-01T14:14:10.384Z,18.89
2019-06-01T14:17:14.656Z,18.98
2019-06-01T14:20:18.933Z,19.10
2019-06-01T14:23:23.634Z,18.93
2019-06-01T14:26:28.011Z,18.90
2019-06-01T14:29:32.278Z,18.91
2019-06-01T14:32:36.582Z,19.18
2019-06-01T14:35:40.875Z,19.19
2019-06-01T14:38:47.788Z,19.35
2019-06-01T14:41:51.224Z,19.52
2019-06-01T14:44:55.997Z,19.42
2019-06-01T14:48:00.243Z,19.50
2019-06-01T14:51:04.739Z,19.72
2019-06-01T14:54:09.030Z,19.52
2019-06-01T14:57:13.422Z,19.59
2019-06-01T15:00:17.918Z,19.21
2019-06-01T15:03:22.232Z,19.14
2019-06-01T15:06:26.555Z,19.03
2019-06-01T15:09:30.842Z,19.12
2019-06-01T15:12:35.180Z,19.39
2019-06-01T15:15:39.482Z,19.85
2019-06-01T15:18:43.858Z,20.18
2019-06-01T15:21:49.938Z,20.26
2019-06-01T15:24:56.461Z,20.25
2019-06-01T15:28:00.803Z,20.72
2019-06-01T15:31:05.097Z,20.48
2019-06-01T15:34:09.399Z,20.27
2019-06-01T15:37:13.829Z,20.13
2019-06-01T15:40:18.389Z,20.24
2019-06-01T15:43:22.702Z,20.53
2019-06-01T15:46:28.145Z,20.89
2019-06-01T15:49:32.429Z,21.18
2019-06-01T15:52:36.755Z,20.94
2019-06-01T15:55:41.062Z,20.22
2019-06-01T15:58:52.992Z,19.95
2019-06-01T16:01:52.880Z,20.22
2019-06-01T16:04:57.312Z,20.06
2019-06-01T16:08:01.773Z,19.59
2019-06-01T16:11:06.711Z,19.28
2019-06-01T16:14:11.140Z,19.02
2019-06-01T16:17:15.441Z,19.35
2019-06-01T16:20:19.948Z,19.67
2019-06-01T16:23:24.295Z,20.02
2019-06-01T16:26:28.674Z,20.43
2019-06-01T16:29:33.011Z,20.50
2019-06-01T16:32:39.548Z,20.08
2019-06-01T16:35:43.441Z,19.50
2019-06-01T16:38:47.729Z,19.77
2019-06-01T16:41:52.043Z,19.95
2019-06-01T16:44:57.433Z,20.07
2019-06-01T16:48:01.781Z,20.25
2019-06-01T16:51:07.607Z,20.11
2019-06-01T16:54:13.106Z,20.33
2019-06-01T16:57:17.479Z,20.54
2019-06-01T17:00:22.213Z,20.71
2019-06-01T17:03:27.727Z,20.47
2019-06-01T17:06:32.427Z,20.87
2019-06-01T17:09:36.706Z,20.83
2019-06-01T17:12:43.633Z,20.75
2019-06-01T17:15:47.052Z,20.78
2019-06-01T17:18:51.362Z,20.40
2019-06-01T17:21:55.782Z,19.52
2019-06-01T17:25:00.092Z,18.76
2019-06-01T17:28:05.265Z,18.38
2019-06-01T17:31:09.632Z,18.23
2019-06-01T17:34:15.756Z,18.07
2019-06-01T17:37:20.064Z,18.06
2019-06-01T17:40:36.768Z,17.86
2019-06-01T17:43:30.501Z,17.72
2019-06-01T17:46:43.339Z,17.63
2019-06-01T17:49:40.887Z,17.56
2019-06-01T17:52:45.205Z,17.38
2019-06-01T17:55:49.485Z,17.30
2019-06-01T17:58:53.853Z,17.27
2019-06-01T18:01:58.155Z,17.10
2019-06-01T18:05:03.945Z,17.01
2019-06-01T18:08:08.544Z,16.94
2019-06-01T18:11:12.991Z,16.79
2019-06-01T18:14:17.518Z,16.79
2019-06-01T18:17:21.807Z,16.69
2019-06-01T18:20:26.175Z,16.55
2019-06-01T18:23:30.623Z,16.52
2019-06-01T18:26:35.014Z,16.45
2019-06-01T18:29:47.356Z,16.34
2019-06-01T18:32:45.408Z,16.19
2019-06-01T18:35:49.820Z,16.12
2019-06-01T18:38:54.135Z,15.97
2019-06-01T18:41:58.575Z,15.92
2019-06-01T18:45:05.654Z,15.93
2019-06-01T18:48:10.377Z,15.94
2019-06-01T18:51:14.680Z,15.98
2019-06-01T18:54:19.007Z,15.83
2019-06-01T18:57:23.568Z,15.67
2019-06-01T19:00:28.038Z,15.61
2019-06-01T19:03:32.348Z,15.56
2019-06-01T19:06:36.657Z,15.55
2019-06-01T19:09:40.992Z,15.50
2019-06-01T19:12:45.302Z,15.48
2019-06-01T19:15:51.102Z,15.47
2019-06-01T19:18:55.404Z,15.48
2019-06-01T19:22:06.589Z,15.43
2019-06-01T19:25:19.398Z,15.38
2019-06-01T19:28:29.792Z,15.38
2019-06-01T19:31:41.040Z,15.36
2019-06-01T19:34:52.039Z,15.32
2019-06-01T19:38:02.044Z,15.28
2019-06-01T19:41:11.324Z,15.21
2019-06-01T19:44:18.932Z,15.22
2019-06-01T19:47:23.562Z,15.11
2019-06-01T19:50:30.029Z,15.05
2019-06-01T19:53:34.480Z,14.94
2019-06-01T19:56:39.065Z,14.79
2019-06-01T19:59:47.483Z,14.69
2019-06-01T20:02:52.644Z,14.64
2019-06-01T20:05:56.979Z,14.63
2019-06-01T20:09:01.439Z,14.48
2019-06-01T20:12:11.578Z,14.45
2019-06-01T20:15:13.315Z,14.44
2019-06-01T20:18:19.078Z,14.42
2019-06-01T20:21:23.671Z,14.37
2019-06-01T20:24:28.148Z,14.41
2019-06-01T20:27:33.637Z,14.43
2019-06-01T20:30:38.078Z,14.44
2019-06-01T20:33:42.424Z,14.34
2019-06-01T20:36:46.885Z,14.17
2019-06-01T20:39:51.261Z,14.17
2019-06-01T20:42:55.711Z,14.05
2019-06-01T20:46:00.011Z,14.02
2019-06-01T20:49:04.503Z,14.01
2019-06-01T20:52:08.852Z,13.93
2019-06-01T20:55:15.178Z,13.92
2019-06-01T20:58:22.060Z,13.86
2019-06-01T21:01:25.900Z,13.84
2019-06-01T21:04:30.200Z,13.84
2019-06-01T21:07:35.994Z,13.72
2019-06-01T21:10:40.319Z,13.70
2019-06-01T21:13:44.677Z,13.70
2019-06-01T21:16:51.102Z,13.70
2019-06-01T21:19:55.526Z,13.62
2019-06-01T21:23:00.969Z,13.56
2019-06-01T21:26:05.544Z,13.54
2019-06-01T21:29:11.669Z,13.50
2019-06-01T21:32:17.309Z,13.44
2019-06-01T21:35:23.456Z,13.35
2019-06-01T21:38:27.943Z,13.35
2019-06-01T21:41:32.325Z,13.42
2019-06-01T21:44:36.625Z,13.28
2019-06-01T21:47:40.924Z,13.28
2019-06-01T21:50:45.235Z,13.34
2019-06-01T21:53:51.008Z,13.35
2019-06-01T21:56:55.302Z,13.33
2019-06-01T21:59:59.600Z,13.28
2019-06-01T22:03:03.961Z,13.15
2019-06-01T22:06:08.271Z,12.95
2019-06-01T22:09:12.610Z,12.82
2019-06-01T22:12:19.128Z,12.82
2019-06-01T22:15:23.870Z,12.78
2019-06-01T22:18:28.285Z,12.76
2019-06-01T22:21:32.690Z,12.71
2019-06-01T22:24:37.018Z,12.74
2019-06-01T22:27:41.366Z,12.91
2019-06-01T22:30:45.769Z,12.96
2019-06-01T22:33:50.076Z,12.97
2019-06-01T22:36:54.471Z,12.87
2019-06-01T22:39:58.773Z,12.81
2019-06-01T22:43:03.087Z,12.80
2019-06-01T22:46:09.235Z,12.82
2019-06-01T22:49:13.553Z,12.80
2019-06-01T22:52:17.852Z,12.75
2019-06-01T22:55:24.358Z,12.82
2019-06-01T22:58:29.656Z,12.82
2019-06-01T23:01:34.151Z,12.79
2019-06-01T23:04:38.472Z,12.81
2019-06-01T23:07:42.770Z,12.83
2019-06-01T23:10:47.063Z,12.78
2019-06-01T23:13:53.728Z,12.77
2019-06-01T23:16:57.343Z,12.67
2019-06-01T23:20:01.639Z,12.59
2019-06-01T23:23:05.948Z,12.52
2019-06-01T23:26:10.248Z,12.47
2019-06-01T23:29:14.588Z,12.38
2019-06-01T23:32:18.885Z,12.31
2019-06-01T23:35:24.326Z,12.21
2019-06-01T23:38:28.792Z,12.15
2019-06-01T23:41:33.104Z,12.11
2019-06-01T23:44:38.866Z,12.06
2019-06-01T23:47:43.239Z,12.02
2019-06-01T23:50:47.632Z,11.98
2019-06-01T23:53:51.949Z,11.92
2019-06-01T23:56:56.254Z,11.87
